createdAt,value
2023-04-01T00:00:14.296Z,9.19
2023-04-01T00:02:43.979Z,9.17
2023-04-01T00:05:14.067Z,9.23
2023-04-01T00:07:46.913Z,9.11
2023-04-01T00:10:17.060Z,9.22
2023-04-01T00:12:47.028Z,9.22
2023-04-01T00:15:16.751Z,9.13
2023-04-01T00:17:46.301Z,9.13
2023-04-01T00:20:16.309Z,9.11
2023-04-01T00:22:48.392Z,9.13
2023-04-01T00:25:18.157Z,9.12
2023-04-01T00:27:47.844Z,9.09
2023-04-01T00:30:18.201Z,9.09
2023-04-01T00:32:47.901Z,9.16
2023-04-01T00:35:18.100Z,9.19
2023-04-01T00:37:50.428Z,9.18
2023-04-01T00:40:28.454Z,9.11
2023-04-01T00:42:58.053Z,9.09
2023-04-01T00:45:32.222Z,9.04
2023-04-01T00:48:03.933Z,9.09
2023-04-01T00:50:34.948Z,9.07
2023-04-01T00:53:07.568Z,9.19
2023-04-01T00:55:39.750Z,9.11
2023-04-01T00:58:11.546Z,9.13
2023-04-01T01:00:41.988Z,9.10
2023-04-01T01:03:11.635Z,9.05
2023-04-01T01:05:51.989Z,9.00
2023-04-01T01:08:31.540Z,9.15
2023-04-01T01:11:01.037Z,9.06
2023-04-01T01:13:35.105Z,9.19
2023-04-01T01:16:08.948Z,9.10
2023-04-01T01:18:40.864Z,9.23
2023-04-01T01:21:33.212Z,9.30
2023-04-01T01:24:20.673Z,9.28
2023-04-01T01:26:58.409Z,9.32
2023-04-01T01:30:04.141Z,9.20
2023-04-01T01:33:06.276Z,9.15
2023-04-01T01:35:39.930Z,9.31
2023-04-01T01:38:12.566Z,9.34
2023-04-01T01:40:44.043Z,9.29
2023-04-01T01:43:16.234Z,9.16
2023-04-01T01:45:50.662Z,9.23
2023-04-01T01:48:20.959Z,9.18
2023-04-01T01:50:54.146Z,9.20
2023-04-01T01:53:23.910Z,9.27
2023-04-01T01:55:53.381Z,9.46
2023-04-01T01:58:26.436Z,9.32
2023-04-01T02:00:58.547Z,9.47
2023-04-01T02:03:29.304Z,9.42
2023-04-01T02:06:03.828Z,9.48
2023-04-01T02:08:38.624Z,9.23
2023-04-01T02:11:11.134Z,9.13
2023-04-01T02:13:44.520Z,9.22
2023-04-01T02:16:17.925Z,9.08
2023-04-01T02:18:50.079Z,9.06
2023-04-01T02:21:24.524Z,8.98
2023-04-01T02:23:54.938Z,9.10
2023-04-01T02:26:24.992Z,9.06
2023-04-01T02:28:54.883Z,9.07
2023-04-01T02:31:25.072Z,9.17
2023-04-01T02:33:54.830Z,9.14
2023-04-01T02:36:27.461Z,9.09
2023-04-01T02:39:00.290Z,9.04
2023-04-01T02:41:29.832Z,9.07
2023-04-01T02:44:00.473Z,8.95
2023-04-01T02:46:29.991Z,9.10
2023-04-01T02:48:59.521Z,9.23
2023-04-01T02:51:32.678Z,9.07
2023-04-01T02:54:02.709Z,9.19
2023-04-01T02:56:32.241Z,9.07
2023-04-01T02:59:01.951Z,9.01
2023-04-01T03:01:31.537Z,9.08
2023-04-01T03:04:01.186Z,9.19
2023-04-01T03:06:33.303Z,9.13
2023-04-01T03:09:02.953Z,9.12
2023-04-01T03:11:32.472Z,9.09
2023-04-01T03:14:01.969Z,9.15
2023-04-01T03:16:31.491Z,9.04
2023-04-01T03:19:03.034Z,8.98
2023-04-01T03:21:35.172Z,9.06
2023-04-01T03:24:04.749Z,9.10
2023-04-01T03:26:34.298Z,9.21
2023-04-01T03:29:03.904Z,9.18
2023-04-01T03:31:33.533Z,9.18
2023-04-01T03:34:03.160Z,9.07
2023-04-01T03:36:35.427Z,9.11
2023-04-01T03:39:04.966Z,9.24
2023-04-01T03:41:36.171Z,9.09
2023-04-01T03:44:05.706Z,9.13
2023-04-01T03:46:35.284Z,9.11
2023-04-01T03:49:04.856Z,9.29
2023-04-01T03:51:36.932Z,9.28
2023-04-01T03:54:06.627Z,9.34
2023-04-01T03:56:36.139Z,9.19
2023-04-01T03:59:07.132Z,9.16
2023-04-01T04:01:37.177Z,9.10
2023-04-01T04:04:06.879Z,9.13
2023-04-01T04:06:39.183Z,9.00
2023-04-01T04:09:08.752Z,9.26
2023-04-01T04:11:38.265Z,9.30
2023-04-01T04:14:07.844Z,9.20
2023-04-01T04:16:39.883Z,9.24
2023-04-01T04:19:09.483Z,9.13
2023-04-01T04:21:41.563Z,9.11
2023-04-01T04:24:11.440Z,9.58
2023-04-01T04:26:40.963Z,9.47
2023-04-01T04:29:10.529Z,9.50
2023-04-01T04:31:40.204Z,8.82
2023-04-01T04:34:10.121Z,8.41
2023-04-01T04:36:42.234Z,8.22
2023-04-01T04:39:11.760Z,8.01
2023-04-01T04:41:41.518Z,7.93
2023-04-01T04:44:11.282Z,7.88
2023-04-01T04:46:41.007Z,7.86
2023-04-01T04:49:10.846Z,7.86
2023-04-01T04:51:43.047Z,7.80
2023-04-01T04:54:12.616Z,7.84
2023-04-01T04:56:42.184Z,7.54
2023-04-01T04:59:11.837Z,7.34
2023-04-01T05:01:41.667Z,7.12
2023-04-01T05:04:11.312Z,7.06
2023-04-01T05:06:43.469Z,6.95
2023-04-01T05:09:13.023Z,6.93
2023-04-01T05:11:42.578Z,6.88
2023-04-01T05:14:16.427Z,6.85
2023-04-01T05:16:46.033Z,6.78
2023-04-01T05:19:15.598Z,6.71
2023-04-01T05:21:47.703Z,6.67
2023-04-01T05:24:17.224Z,6.64
2023-04-01T05:26:46.702Z,6.47
2023-04-01T05:29:16.198Z,6.40
2023-04-01T05:31:45.896Z,6.32
2023-04-01T05:34:15.395Z,6.30
2023-04-01T05:36:47.666Z,6.23
2023-04-01T05:39:17.224Z,6.22
2023-04-01T05:41:46.687Z,6.17
2023-04-01T05:44:16.660Z,6.15
2023-04-01T05:46:46.364Z,6.07
2023-04-01T05:49:15.976Z,6.03
2023-04-01T05:51:48.140Z,5.99
2023-04-01T05:54:17.625Z,6.03
2023-04-01T05:56:48.693Z,5.89
2023-04-01T05:59:21.283Z,5.85
2023-04-01T06:01:50.758Z,5.83
2023-04-01T06:04:21.411Z,5.85
2023-04-01T06:06:53.597Z,5.81
2023-04-01T06:09:27.475Z,5.63
2023-04-01T06:12:19.738Z,5.60
2023-04-01T06:14:56.160Z,5.59
2023-04-01T06:17:31.092Z,5.54
2023-04-01T06:20:07.497Z,5.57
2023-04-01T06:22:49.586Z,5.50
2023-04-01T06:25:27.176Z,5.43
2023-04-01T06:28:33.220Z,5.46
2023-04-01T06:31:08.788Z,5.48
2023-04-01T06:33:47.804Z,5.37
2023-04-01T06:36:29.488Z,5.40
2023-04-01T06:39:13.122Z,5.35
2023-04-01T06:42:05.262Z,5.29
2023-04-01T06:44:41.329Z,5.22
2023-04-01T06:47:22.893Z,5.20
2023-04-01T06:49:57.587Z,5.17
2023-04-01T06:52:30.889Z,5.14
2023-04-01T06:55:06.685Z,5.13
2023-04-01T06:57:39.475Z,5.10
2023-04-01T07:00:17.199Z,5.11
2023-04-01T07:02:54.782Z,5.12
2023-04-01T07:05:25.110Z,5.08
2023-04-01T07:07:57.048Z,5.08
2023-04-01T07:10:35.146Z,5.05
2023-04-01T07:13:08.027Z,4.99
2023-04-01T07:15:40.696Z,5.02
2023-04-01T07:18:14.986Z,5.00
2023-04-01T07:20:44.565Z,5.02
2023-04-01T07:23:24.000Z,5.02
2023-04-01T07:26:00.140Z,5.02
2023-04-01T07:28:35.273Z,4.98
2023-04-01T07:31:12.909Z,4.99
2023-04-01T07:33:46.643Z,4.94
2023-04-01T07:36:18.854Z,4.97
2023-04-01T07:38:59.461Z,4.94
2023-04-01T07:41:36.815Z,4.84
2023-04-01T07:44:13.878Z,4.82
2023-04-01T07:46:57.447Z,4.84
2023-04-01T07:49:33.385Z,4.92
2023-04-01T07:52:06.110Z,4.94
2023-04-01T07:54:41.789Z,4.84
2023-04-01T07:57:16.769Z,4.86
2023-04-01T07:59:53.553Z,4.85
2023-04-01T08:02:37.581Z,4.83
2023-04-01T08:05:13.693Z,4.71
2023-04-01T08:07:49.640Z,4.77
2023-04-01T08:10:24.736Z,4.80
2023-04-01T08:13:06.795Z,4.78
2023-04-01T08:15:40.038Z,4.72
2023-04-01T08:18:16.378Z,4.83
2023-04-01T08:20:49.367Z,4.85
2023-04-01T08:23:21.925Z,4.89
2023-04-01T08:25:55.699Z,4.87
2023-04-01T08:28:32.094Z,4.76
2023-04-01T08:31:05.241Z,4.79
2023-04-01T08:33:36.087Z,4.82
2023-04-01T08:36:10.374Z,4.85
2023-04-01T08:38:44.607Z,4.78
2023-04-01T08:41:31.815Z,4.83
2023-04-01T08:44:31.667Z,4.82
2023-04-01T08:47:14.013Z,4.83
2023-04-01T08:50:07.303Z,4.82
2023-04-01T08:52:40.785Z,4.84
2023-04-01T08:55:35.939Z,4.88
2023-04-01T08:58:27.976Z,4.86
2023-04-01T09:01:13.286Z,4.91
2023-04-01T09:03:52.688Z,4.99
2023-04-01T09:06:29.586Z,4.95
2023-04-01T09:09:31.812Z,5.00
2023-04-01T09:12:46.926Z,5.11
2023-04-01T09:15:29.146Z,5.05
2023-04-01T09:18:25.542Z,5.06
2023-04-01T09:21:14.504Z,5.09
2023-04-01T09:23:57.029Z,5.04
2023-04-01T09:26:37.470Z,4.96
2023-04-01T09:29:19.106Z,4.99
2023-04-01T09:32:05.577Z,5.03
2023-04-01T09:34:52.511Z,5.03
2023-04-01T09:37:24.622Z,5.08
2023-04-01T09:40:13.829Z,5.15
2023-04-01T09:42:48.572Z,5.23
2023-04-01T09:45:31.990Z,5.16
2023-04-01T09:48:11.410Z,5.17
2023-04-01T09:50:50.666Z,5.21
2023-04-01T09:53:36.530Z,5.19
2023-04-01T09:56:22.817Z,5.17
2023-04-01T09:59:25.910Z,5.11
2023-04-01T10:02:29.945Z,4.95
2023-04-01T10:05:30.681Z,5.03
2023-04-01T10:08:18.450Z,5.12
2023-04-01T10:11:12.882Z,5.20
2023-04-01T10:14:21.704Z,5.38
2023-04-01T10:17:29.284Z,5.45
2023-04-01T10:20:21.205Z,5.49
2023-04-01T10:23:20.432Z,5.54
2023-04-01T10:26:08.541Z,5.52
2023-04-01T10:29:21.229Z,5.67
2023-04-01T10:32:12.799Z,5.57
2023-04-01T10:34:52.589Z,5.69
2023-04-01T10:37:45.414Z,5.65
2023-04-01T10:40:34.936Z,5.47
2023-04-01T10:43:40.161Z,5.43
2023-04-01T10:46:30.243Z,5.49
2023-04-01T10:49:32.619Z,5.51
2023-04-01T10:52:28.553Z,5.54
2023-04-01T10:55:13.832Z,5.52
2023-04-01T10:58:12.577Z,5.69
2023-04-01T11:01:01.926Z,5.70
2023-04-01T11:04:06.058Z,5.53
2023-04-01T11:07:13.598Z,5.50
2023-04-01T11:10:06.854Z,5.61
2023-04-01T11:12:53.254Z,5.49
2023-04-01T11:15:38.677Z,5.42
2023-04-01T11:18:41.100Z,5.31
2023-04-01T11:21:37.261Z,5.22
2023-04-01T11:24:37.219Z,5.15
2023-04-01T11:27:14.491Z,5.22
2023-04-01T11:30:19.544Z,5.21
2023-04-01T11:32:55.389Z,5.20
2023-04-01T11:35:36.953Z,5.24
2023-04-01T11:38:29.524Z,5.32
2023-04-01T11:41:17.043Z,5.17
2023-04-01T11:43:52.677Z,5.13
2023-04-01T11:46:27.179Z,5.11
2023-04-01T11:49:07.130Z,5.16
2023-04-01T11:51:46.694Z,5.12
2023-04-01T11:54:28.239Z,5.18
2023-04-01T11:57:16.081Z,5.21
2023-04-01T11:59:56.104Z,5.06
2023-04-01T12:02:29.979Z,5.00
2023-04-01T12:05:12.385Z,4.99
2023-04-01T12:07:56.404Z,4.97
2023-04-01T12:10:31.768Z,4.89
2023-04-01T12:13:08.586Z,4.89
2023-04-01T12:15:47.511Z,4.96
2023-04-01T12:18:21.757Z,4.92
2023-04-01T12:20:54.476Z,4.85
2023-04-01T12:23:48.661Z,4.89
2023-04-01T12:26:32.840Z,4.91
2023-04-01T12:29:13.817Z,4.81
2023-04-01T12:31:50.711Z,4.82
2023-04-01T12:34:46.186Z,4.79
2023-04-01T12:37:21.876Z,4.83
2023-04-01T12:40:20.259Z,4.88
2023-04-01T12:43:03.789Z,5.17
2023-04-01T12:45:35.754Z,5.27
2023-04-01T12:48:27.127Z,5.70
2023-04-01T12:51:22.511Z,6.49
2023-04-01T12:54:08.234Z,6.46
2023-04-01T12:56:48.178Z,6.14
2023-04-01T12:59:36.461Z,6.07
2023-04-01T13:02:16.070Z,5.73
2023-04-01T13:05:05.756Z,5.91
2023-04-01T13:08:01.218Z,5.58
2023-04-01T13:10:58.112Z,5.25
2023-04-01T13:13:48.494Z,5.27
2023-04-01T13:16:23.231Z,5.07
2023-04-01T13:19:00.786Z,4.96
2023-04-01T13:21:40.682Z,4.81
2023-04-01T13:24:19.813Z,4.98
2023-04-01T13:26:58.285Z,4.81
2023-04-01T13:29:31.715Z,4.87
2023-04-01T13:32:16.691Z,4.77
2023-04-01T13:34:56.736Z,4.77
2023-04-01T13:37:36.420Z,4.63
2023-04-01T13:40:46.838Z,4.58
2023-04-01T13:43:25.713Z,4.59
2023-04-01T13:46:16.601Z,4.65
2023-04-01T13:49:01.790Z,4.72
2023-04-01T13:51:50.141Z,4.82
2023-04-01T13:54:43.962Z,4.70
2023-04-01T13:57:24.824Z,4.64
2023-04-01T14:00:14.759Z,4.72
2023-04-01T14:02:56.195Z,4.78
2023-04-01T14:05:43.681Z,4.83
2023-04-01T14:08:21.588Z,4.80
2023-04-01T14:10:59.643Z,4.88
2023-04-01T14:13:36.394Z,4.82
2023-04-01T14:16:25.006Z,4.84
2023-04-01T14:19:07.782Z,4.69
2023-04-01T14:21:42.479Z,4.80
2023-04-01T14:24:31.417Z,4.69
2023-04-01T14:27:12.714Z,4.76
2023-04-01T14:29:48.488Z,4.85
2023-04-01T14:32:20.689Z,4.88
2023-04-01T14:35:07.088Z,4.96
2023-04-01T14:38:06.376Z,5.04
2023-04-01T14:40:52.387Z,5.06
2023-04-01T14:43:31.874Z,5.44
2023-04-01T14:46:27.028Z,5.57
2023-04-01T14:48:59.744Z,5.36
2023-04-01T14:51:33.882Z,5.48
2023-04-01T14:54:09.241Z,5.65
2023-04-01T14:56:39.718Z,5.66
2023-04-01T14:59:13.881Z,5.73
2023-04-01T15:01:54.631Z,5.67
2023-04-01T15:04:51.853Z,5.52
2023-04-01T15:07:51.234Z,5.33
2023-04-01T15:10:35.489Z,4.87
2023-04-01T15:13:14.774Z,5.15
2023-04-01T15:15:55.451Z,5.34
2023-04-01T15:18:34.573Z,5.17
2023-04-01T15:21:20.126Z,4.97
2023-04-01T15:23:56.720Z,4.84
2023-04-01T15:26:41.947Z,4.89
2023-04-01T15:29:25.017Z,5.00
2023-04-01T15:31:59.198Z,4.95
2023-04-01T15:34:36.283Z,4.96
2023-04-01T15:37:09.673Z,4.92
2023-04-01T15:39:56.574Z,5.06
2023-04-01T15:42:46.551Z,5.17
2023-04-01T15:45:36.501Z,5.08
2023-04-01T15:48:14.321Z,4.81
2023-04-01T15:50:58.939Z,4.97
2023-04-01T15:53:45.751Z,4.72
2023-04-01T15:56:22.842Z,4.77
2023-04-01T15:59:03.109Z,4.97
2023-04-01T16:01:40.475Z,4.89
2023-04-01T16:04:25.548Z,4.70
2023-04-01T16:07:07.863Z,4.64
2023-04-01T16:09:48.271Z,4.65
2023-04-01T16:12:22.940Z,4.49
2023-04-01T16:15:04.374Z,4.36
2023-04-01T16:17:44.764Z,4.56
2023-04-01T16:20:22.970Z,4.44
2023-04-01T16:23:01.392Z,4.48
2023-04-01T16:25:36.792Z,4.38
2023-04-01T16:28:16.960Z,4.30
2023-04-01T16:30:51.753Z,4.38
2023-04-01T16:33:27.056Z,4.75
2023-04-01T16:35:59.833Z,5.11
2023-04-01T16:38:37.095Z,5.40
2023-04-01T16:41:15.585Z,5.22
2023-04-01T16:43:49.044Z,5.60
2023-04-01T16:46:32.213Z,5.48
2023-04-01T16:49:18.394Z,5.88
2023-04-01T16:51:51.273Z,5.08
2023-04-01T16:54:32.185Z,4.49
2023-04-01T16:57:07.373Z,4.37
2023-04-01T16:59:39.922Z,4.32
2023-04-01T17:02:18.574Z,4.16
2023-04-01T17:04:49.849Z,4.12
2023-04-01T17:07:27.809Z,3.98
2023-04-01T17:10:09.337Z,3.67
2023-04-01T17:12:43.662Z,3.73
2023-04-01T17:15:23.301Z,3.74
2023-04-01T17:18:00.736Z,3.91
2023-04-01T17:20:40.846Z,3.82
2023-04-01T17:23:17.326Z,3.69
2023-04-01T17:26:01.674Z,3.65
2023-04-01T17:28:38.683Z,3.72
2023-04-01T17:31:13.855Z,3.64
2023-04-01T17:34:03.475Z,3.94
2023-04-01T17:36:43.238Z,4.64
2023-04-01T17:39:30.183Z,5.21
2023-04-01T17:42:04.104Z,5.21
2023-04-01T17:44:42.395Z,4.81
2023-04-01T17:47:41.347Z,4.67
2023-04-01T17:50:23.365Z,4.67
2023-04-01T17:53:02.648Z,4.35
2023-04-01T17:55:46.517Z,3.93
2023-04-01T17:58:22.140Z,3.97
2023-04-01T18:01:02.881Z,3.70
2023-04-01T18:03:48.549Z,3.80
2023-04-01T18:06:23.777Z,3.78
2023-04-01T18:09:02.014Z,3.74
2023-04-01T18:11:46.544Z,3.61
2023-04-01T18:14:39.707Z,3.33
2023-04-01T18:17:22.472Z,3.38
2023-04-01T18:20:01.206Z,3.33
2023-04-01T18:22:41.019Z,3.30
2023-04-01T18:25:18.868Z,3.31
2023-04-01T18:27:50.162Z,3.18
2023-04-01T18:30:21.886Z,3.28
2023-04-01T18:32:54.931Z,3.21
2023-04-01T18:35:32.358Z,3.19
2023-04-01T18:38:12.026Z,3.33
2023-04-01T18:40:45.700Z,3.19
2023-04-01T18:43:22.584Z,3.16
2023-04-01T18:45:57.220Z,3.11
2023-04-01T18:48:43.739Z,3.02
2023-04-01T18:51:18.725Z,2.97
2023-04-01T18:53:53.808Z,2.91
2023-04-01T18:56:30.618Z,3.00
2023-04-01T18:59:05.851Z,2.96
2023-04-01T19:01:41.624Z,2.88
2023-04-01T19:04:21.584Z,2.99
2023-04-01T19:06:53.028Z,2.84
2023-04-01T19:09:28.710Z,2.70
2023-04-01T19:12:20.034Z,2.76
2023-04-01T19:14:58.128Z,2.78
2023-04-01T19:17:36.336Z,2.79
2023-04-01T19:20:16.185Z,2.75
2023-04-01T19:22:57.133Z,2.80
2023-04-01T19:25:39.661Z,2.70
2023-04-01T19:28:25.047Z,2.71
2023-04-01T19:30:58.387Z,2.82
2023-04-01T19:33:42.123Z,2.80
2023-04-01T19:36:17.100Z,2.66
2023-04-01T19:38:56.489Z,2.70
2023-04-01T19:41:38.853Z,2.75
2023-04-01T19:44:16.826Z,2.77
2023-04-01T19:46:48.358Z,2.75
2023-04-01T19:49:28.138Z,2.78
2023-04-01T19:52:01.362Z,2.83
2023-04-01T19:54:37.853Z,2.70
2023-04-01T19:57:18.719Z,2.59
2023-04-01T19:59:53.057Z,2.46
2023-04-01T20:02:42.167Z,2.35
2023-04-01T20:05:42.887Z,2.35
2023-04-01T20:08:16.537Z,2.22
2023-04-01T20:10:53.288Z,2.22
2023-04-01T20:13:31.755Z,2.12
2023-04-01T20:16:06.662Z,2.13
2023-04-01T20:18:43.865Z,2.12
2023-04-01T20:21:24.071Z,2.14
2023-04-01T20:23:57.032Z,1.88
2023-04-01T20:26:29.317Z,1.87
2023-04-01T20:29:12.158Z,1.93
2023-04-01T20:31:46.465Z,2.00
2023-04-01T20:34:34.482Z,1.93
2023-04-01T20:37:26.226Z,1.84
2023-04-01T20:40:34.244Z,1.89
2023-04-01T20:43:37.601Z,2.00
2023-04-01T20:46:14.448Z,1.83
2023-04-01T20:49:06.782Z,1.67
2023-04-01T20:51:39.175Z,1.82
2023-04-01T20:54:19.719Z,1.81
2023-04-01T20:56:58.788Z,1.66
2023-04-01T20:59:36.680Z,1.51
2023-04-01T21:02:20.877Z,1.55
2023-04-01T21:05:14.112Z,1.57
2023-04-01T21:07:45.776Z,1.63
2023-04-01T21:10:33.560Z,1.52
2023-04-01T21:13:10.341Z,1.56
2023-04-01T21:15:50.204Z,1.46
2023-04-01T21:18:46.498Z,1.46
2023-04-01T21:21:37.341Z,1.67
2023-04-01T21:24:33.901Z,1.45
2023-04-01T21:27:09.680Z,1.50
2023-04-01T21:29:54.307Z,1.54
2023-04-01T21:32:38.900Z,1.44
2023-04-01T21:35:19.047Z,1.46
2023-04-01T21:37:53.861Z,1.26
2023-04-01T21:40:47.047Z,1.23
2023-04-01T21:43:34.997Z,1.30
2023-04-01T21:46:29.352Z,1.34
2023-04-01T21:49:28.429Z,1.45
2023-04-01T21:52:35.123Z,1.34
2023-04-01T21:55:33.191Z,1.32
2023-04-01T21:58:49.870Z,1.20
2023-04-01T22:01:36.227Z,1.13
2023-04-01T22:04:22.500Z,1.29
2023-04-01T22:06:54.986Z,1.24
2023-04-01T22:09:30.713Z,1.20
2023-04-01T22:12:04.679Z,1.19
2023-04-01T22:14:41.385Z,1.25
2023-04-01T22:17:18.203Z,1.28
2023-04-01T22:19:56.740Z,1.18
2023-04-01T22:22:31.973Z,1.10
2023-04-01T22:25:10.043Z,1.13
2023-04-01T22:27:43.981Z,1.37
2023-04-01T22:30:20.746Z,1.26
2023-04-01T22:32:51.860Z,1.05
2023-04-01T22:35:38.055Z,1.21
2023-04-01T22:38:16.902Z,1.03
2023-04-01T22:40:51.663Z,0.99
2023-04-01T22:43:26.968Z,1.01
2023-04-01T22:46:17.865Z,1.10
2023-04-01T22:48:50.512Z,0.91
2023-04-01T22:51:22.671Z,1.06
2023-04-01T22:54:07.183Z,1.10
2023-04-01T22:56:41.520Z,0.99
2023-04-01T22:59:17.185Z,0.88
2023-04-01T23:01:50.296Z,0.76
2023-04-01T23:04:21.598Z,0.98
2023-04-01T23:06:54.840Z,0.90
2023-04-01T23:09:24.954Z,0.82
2023-04-01T23:11:59.126Z,0.80
2023-04-01T23:14:41.964Z,0.94
2023-04-01T23:17:24.597Z,1.03
2023-04-01T23:19:59.128Z,0.92
2023-04-01T23:22:33.876Z,0.94
2023-04-01T23:25:16.378Z,0.94
2023-04-01T23:27:53.279Z,0.90
2023-04-01T23:30:53.421Z,1.06
2023-04-01T23:33:28.279Z,0.89
2023-04-01T23:36:06.207Z,0.95
2023-04-01T23:38:37.629Z,0.83
2023-04-01T23:41:08.282Z,0.92
2023-04-01T23:43:42.367Z,0.83
2023-04-01T23:46:12.106Z,1.00
2023-04-01T23:48:44.035Z,0.97
2023-04-01T23:51:18.264Z,0.90
2023-04-01T23:53:50.202Z,0.88
2023-04-01T23:56:22.136Z,0.98
2023-04-01T23:58:57.765Z,0.97
